sensor_id;sensor_type;location;lat;lon;timestamp;P1;durP1;ratioP1;P2;durP2;ratioP2
43337;SDS011;28933;52.492;13.434;2024-01-16T00:02:32;5.03;;;2.25;;
43337;SDS011;28933;52.492;13.434;2024-01-16T00:05:18;5.22;;;2.92;;
43337;SDS011;28933;52.492;13.434;2024-01-16T00:08:05;5.35;;;2.83;;
43337;SDS011;28933;52.492;13.434;2024-01-16T00:10:50;6.00;;;2.00;;
43337;SDS011;28933;52.492;13.434;2024-01-16T00:13:36;3.85;;;1.85;;
43337;SDS011;28933;52.492;13.434;2024-01-16T00:16:22;3.92;;;1.77;;
43337;SDS011;28933;52.492;13.434;2024-01-16T00:19:09;4.20;;;1.60;;
43337;SDS011;28933;52.492;13.434;2024-01-16T00:21:55;3.55;;;1.90;;
43337;SDS011;28933;52.492;13.434;2024-01-16T00:24:41;3.47;;;1.80;;
43337;SDS011;28933;52.492;13.434;2024-01-16T00:27:27;3.75;;;2.17;;
43337;SDS011;28933;52.492;13.434;2024-01-16T00:30:13;3.50;;;1.95;;
43337;SDS011;28933;52.492;13.434;2024-01-16T00:33:00;3.22;;;1.70;;
43337;SDS011;28933;52.492;13.434;2024-01-16T00:35:45;6.88;;;2.05;;
43337;SDS011;28933;52.492;13.434;2024-01-16T00:38:34;3.08;;;2.05;;
43337;SDS011;28933;52.492;13.434;2024-01-16T00:41:20;4.85;;;2.00;;
43337;SDS011;28933;52.492;13.434;2024-01-16T00:44:06;3.17;;;2.22;;
43337;SDS011;28933;52.492;13.434;2024-01-16T00:46:53;4.35;;;2.38;;
43337;SDS011;28933;52.492;13.434;2024-01-16T00:49:39;3.78;;;2.22;;
43337;SDS011;28933;52.492;13.434;2024-01-16T00:52:25;3.35;;;2.08;;
43337;SDS011;28933;52.492;13.434;2024-01-16T00:55:11;3.15;;;1.77;;
43337;SDS011;28933;52.492;13.434;2024-01-16T00:57:57;3.58;;;2.15;;
43337;SDS011;28933;52.492;13.434;2024-01-16T01:00:43;2.90;;;2.15;;
43337;SDS011;28933;52.492;13.434;2024-01-16T01:03:29;3.72;;;2.35;;
43337;SDS011;28933;52.492;13.434;2024-01-16T01:06:15;3.55;;;1.88;;
43337;SDS011;28933;52.492;13.434;2024-01-16T01:09:01;4.50;;;2.08;;
43337;SDS011;28933;52.492;13.434;2024-01-16T01:11:48;4.22;;;1.70;;
43337;SDS011;28933;52.492;13.434;2024-01-16T01:14:34;4.57;;;1.80;;
43337;SDS011;28933;52.492;13.434;2024-01-16T01:17:20;2.25;;;1.38;;
43337;SDS011;28933;52.492;13.434;2024-01-16T01:20:06;4.00;;;1.65;;
43337;SDS011;28933;52.492;13.434;2024-01-16T01:22:57;3.92;;;1.42;;
43337;SDS011;28933;52.492;13.434;2024-01-16T01:25:43;1.60;;;0.93;;
43337;SDS011;28933;52.492;13.434;2024-01-16T01:28:29;2.78;;;1.50;;
43337;SDS011;28933;52.492;13.434;2024-01-16T01:31:16;1.60;;;1.13;;
43337;SDS011;28933;52.492;13.434;2024-01-16T01:34:02;2.95;;;1.58;;
43337;SDS011;28933;52.492;13.434;2024-01-16T01:36:49;2.13;;;1.10;;
43337;SDS011;28933;52.492;13.434;2024-01-16T01:39:35;4.78;;;1.63;;
43337;SDS011;28933;52.492;13.434;2024-01-16T01:42:21;2.63;;;1.20;;
43337;SDS011;28933;52.492;13.434;2024-01-16T01:45:10;3.10;;;1.33;;
43337;SDS011;28933;52.492;13.434;2024-01-16T01:47:57;6.53;;;1.20;;
43337;SDS011;28933;52.492;13.434;2024-01-16T01:50:43;2.15;;;1.20;;
43337;SDS011;28933;52.492;13.434;2024-01-16T01:53:29;1.77;;;1.30;;
43337;SDS011;28933;52.492;13.434;2024-01-16T01:56:19;2.80;;;1.50;;
43337;SDS011;28933;52.492;13.434;2024-01-16T01:59:06;3.05;;;1.70;;
43337;SDS011;28933;52.492;13.434;2024-01-16T02:01:53;2.85;;;1.48;;
43337;SDS011;28933;52.492;13.434;2024-01-16T02:04:40;4.28;;;1.52;;
43337;SDS011;28933;52.492;13.434;2024-01-16T02:07:27;4.05;;;2.05;;
43337;SDS011;28933;52.492;13.434;2024-01-16T02:10:14;3.88;;;1.88;;
43337;SDS011;28933;52.492;13.434;2024-01-16T02:13:00;5.13;;;2.25;;
43337;SDS011;28933;52.492;13.434;2024-01-16T02:15:46;3.75;;;1.65;;
43337;SDS011;28933;52.492;13.434;2024-01-16T02:18:32;4.32;;;1.80;;
43337;SDS011;28933;52.492;13.434;2024-01-16T02:21:22;5.47;;;1.88;;
43337;SDS011;28933;52.492;13.434;2024-01-16T02:24:10;4.00;;;1.58;;
43337;SDS011;28933;52.492;13.434;2024-01-16T02:26:57;2.15;;;1.30;;
43337;SDS011;28933;52.492;13.434;2024-01-16T02:29:43;2.78;;;1.20;;
43337;SDS011;28933;52.492;13.434;2024-01-16T02:32:30;2.03;;;1.13;;
43337;SDS011;28933;52.492;13.434;2024-01-16T02:35:16;3.10;;;1.58;;
43337;SDS011;28933;52.492;13.434;2024-01-16T02:38:03;1.67;;;1.20;;
43337;SDS011;28933;52.492;13.434;2024-01-16T02:40:50;3.33;;;1.40;;
43337;SDS011;28933;52.492;13.434;2024-01-16T02:43:36;3.22;;;1.88;;
43337;SDS011;28933;52.492;13.434;2024-01-16T02:46:22;3.58;;;1.50;;
43337;SDS011;28933;52.492;13.434;2024-01-16T02:49:08;1.63;;;1.30;;
43337;SDS011;28933;52.492;13.434;2024-01-16T02:51:54;1.85;;;1.40;;
43337;SDS011;28933;52.492;13.434;2024-01-16T02:54:39;1.85;;;1.20;;
43337;SDS011;28933;52.492;13.434;2024-01-16T02:57:25;3.33;;;1.50;;
43337;SDS011;28933;52.492;13.434;2024-01-16T03:00:11;3.08;;;2.20;;
43337;SDS011;28933;52.492;13.434;2024-01-16T03:02:59;3.97;;;2.00;;
43337;SDS011;28933;52.492;13.434;2024-01-16T03:05:46;2.50;;;1.60;;
43337;SDS011;28933;52.492;13.434;2024-01-16T03:08:32;6.15;;;2.05;;
43337;SDS011;28933;52.492;13.434;2024-01-16T03:11:18;3.55;;;2.47;;
43337;SDS011;28933;52.492;13.434;2024-01-16T03:14:05;5.68;;;1.60;;
43337;SDS011;28933;52.492;13.434;2024-01-16T03:16:51;5.45;;;2.00;;
43337;SDS011;28933;52.492;13.434;2024-01-16T03:19:36;3.55;;;2.00;;
43337;SDS011;28933;52.492;13.434;2024-01-16T03:22:22;5.78;;;2.10;;
43337;SDS011;28933;52.492;13.434;2024-01-16T03:25:09;5.72;;;2.05;;
43337;SDS011;28933;52.492;13.434;2024-01-16T03:27:58;4.47;;;1.83;;
43337;SDS011;28933;52.492;13.434;2024-01-16T03:30:44;2.55;;;1.55;;
43337;SDS011;28933;52.492;13.434;2024-01-16T03:33:30;3.58;;;1.70;;
43337;SDS011;28933;52.492;13.434;2024-01-16T03:36:16;2.13;;;1.67;;
43337;SDS011;28933;52.492;13.434;2024-01-16T03:39:02;3.47;;;2.00;;
43337;SDS011;28933;52.492;13.434;2024-01-16T03:41:48;5.30;;;2.15;;
43337;SDS011;28933;52.492;13.434;2024-01-16T03:44:37;2.72;;;1.58;;
43337;SDS011;28933;52.492;13.434;2024-01-16T03:47:26;1.98;;;1.60;;
43337;SDS011;28933;52.492;13.434;2024-01-16T03:50:12;3.20;;;2.13;;
43337;SDS011;28933;52.492;13.434;2024-01-16T03:52:58;3.63;;;1.75;;
43337;SDS011;28933;52.492;13.434;2024-01-16T03:55:44;2.42;;;1.85;;
43337;SDS011;28933;52.492;13.434;2024-01-16T03:58:30;4.40;;;2.30;;
43337;SDS011;28933;52.492;13.434;2024-01-16T04:01:16;3.33;;;1.73;;
43337;SDS011;28933;52.492;13.434;2024-01-16T04:04:02;2.90;;;1.60;;
43337;SDS011;28933;52.492;13.434;2024-01-16T04:06:48;2.40;;;1.60;;
43337;SDS011;28933;52.492;13.434;2024-01-16T04:09:34;5.93;;;1.80;;
43337;SDS011;28933;52.492;13.434;2024-01-16T04:12:20;2.45;;;1.63;;
43337;SDS011;28933;52.492;13.434;2024-01-16T04:15:07;5.25;;;1.63;;
43337;SDS011;28933;52.492;13.434;2024-01-16T04:17:53;2.20;;;2.00;;
43337;SDS011;28933;52.492;13.434;2024-01-16T04:20:39;5.95;;;2.78;;
43337;SDS011;28933;52.492;13.434;2024-01-16T04:23:25;4.05;;;2.25;;
43337;SDS011;28933;52.492;13.434;2024-01-16T04:26:11;3.33;;;2.03;;
43337;SDS011;28933;52.492;13.434;2024-01-16T04:28:57;3.67;;;2.42;;
43337;SDS011;28933;52.492;13.434;2024-01-16T04:31:42;4.03;;;1.98;;
43337;SDS011;28933;52.492;13.434;2024-01-16T04:34:29;3.60;;;2.25;;
43337;SDS011;28933;52.492;13.434;2024-01-16T04:37:15;4.28;;;2.60;;
43337;SDS011;28933;52.492;13.434;2024-01-16T04:40:01;3.30;;;2.30;;
43337;SDS011;28933;52.492;13.434;2024-01-16T04:42:47;2.45;;;1.73;;
43337;SDS011;28933;52.492;13.434;2024-01-16T04:45:33;4.38;;;2.47;;
43337;SDS011;28933;52.492;13.434;2024-01-16T04:48:19;3.50;;;2.38;;
43337;SDS011;28933;52.492;13.434;2024-01-16T04:51:04;5.03;;;3.00;;
43337;SDS011;28933;52.492;13.434;2024-01-16T04:53:50;4.35;;;2.75;;
43337;SDS011;28933;52.492;13.434;2024-01-16T04:56:37;3.22;;;2.38;;
43337;SDS011;28933;52.492;13.434;2024-01-16T04:59:23;6.65;;;2.88;;
43337;SDS011;28933;52.492;13.434;2024-01-16T05:02:09;4.78;;;3.10;;
43337;SDS011;28933;52.492;13.434;2024-01-16T05:04:56;4.80;;;2.90;;
43337;SDS011;28933;52.492;13.434;2024-01-16T05:07:42;4.68;;;3.28;;
43337;SDS011;28933;52.492;13.434;2024-01-16T05:10:28;6.43;;;3.28;;
43337;SDS011;28933;52.492;13.434;2024-01-16T05:13:14;6.38;;;2.72;;
43337;SDS011;28933;52.492;13.434;2024-01-16T05:16:00;4.82;;;2.90;;
43337;SDS011;28933;52.492;13.434;2024-01-16T05:18:46;7.10;;;2.50;;
43337;SDS011;28933;52.492;13.434;2024-01-16T05:21:32;8.60;;;3.35;;
43337;SDS011;28933;52.492;13.434;2024-01-16T05:24:18;4.35;;;3.00;;
43337;SDS011;28933;52.492;13.434;2024-01-16T05:27:04;6.90;;;3.22;;
43337;SDS011;28933;52.492;13.434;2024-01-16T05:29:50;6.47;;;3.13;;
43337;SDS011;28933;52.492;13.434;2024-01-16T05:32:36;6.45;;;3.83;;
43337;SDS011;28933;52.492;13.434;2024-01-16T05:35:21;5.15;;;3.22;;
43337;SDS011;28933;52.492;13.434;2024-01-16T05:38:07;5.93;;;3.78;;
43337;SDS011;28933;52.492;13.434;2024-01-16T05:40:53;7.07;;;3.83;;
43337;SDS011;28933;52.492;13.434;2024-01-16T05:43:39;4.22;;;2.90;;
43337;SDS011;28933;52.492;13.434;2024-01-16T05:46:25;5.50;;;3.22;;
43337;SDS011;28933;52.492;13.434;2024-01-16T05:49:11;4.30;;;2.40;;
43337;SDS011;28933;52.492;13.434;2024-01-16T05:51:57;5.20;;;2.58;;
43337;SDS011;28933;52.492;13.434;2024-01-16T05:54:43;5.78;;;3.28;;
43337;SDS011;28933;52.492;13.434;2024-01-16T05:57:29;6.88;;;3.35;;
43337;SDS011;28933;52.492;13.434;2024-01-16T06:00:18;4.07;;;2.72;;
43337;SDS011;28933;52.492;13.434;2024-01-16T06:03:08;8.45;;;3.67;;
43337;SDS011;28933;52.492;13.434;2024-01-16T06:05:53;5.35;;;3.42;;
43337;SDS011;28933;52.492;13.434;2024-01-16T06:08:39;7.07;;;3.88;;
43337;SDS011;28933;52.492;13.434;2024-01-16T06:11:32;4.43;;;3.53;;
43337;SDS011;28933;52.492;13.434;2024-01-16T06:14:18;5.72;;;3.47;;
43337;SDS011;28933;52.492;13.434;2024-01-16T06:17:06;4.55;;;3.47;;
43337;SDS011;28933;52.492;13.434;2024-01-16T06:19:52;5.68;;;3.50;;
43337;SDS011;28933;52.492;13.434;2024-01-16T06:22:38;6.32;;;3.65;;
43337;SDS011;28933;52.492;13.434;2024-01-16T06:25:24;5.88;;;4.00;;
43337;SDS011;28933;52.492;13.434;2024-01-16T14:45:49;4.68;;;2.80;;
43337;SDS011;28933;52.492;13.434;2024-01-16T14:48:37;8.65;;;3.15;;
43337;SDS011;28933;52.492;13.434;2024-01-16T14:51:28;7.97;;;3.20;;
43337;SDS011;28933;52.492;13.434;2024-01-16T14:54:14;8.27;;;3.08;;
43337;SDS011;28933;52.492;13.434;2024-01-16T14:57:00;7.47;;;3.05;;
43337;SDS011;28933;52.492;13.434;2024-01-16T14:59:46;10.80;;;3.00;;
43337;SDS011;28933;52.492;13.434;2024-01-16T15:02:33;5.15;;;3.25;;
43337;SDS011;28933;52.492;13.434;2024-01-16T15:05:19;9.02;;;3.47;;
43337;SDS011;28933;52.492;13.434;2024-01-16T15:08:05;7.38;;;3.47;;
43337;SDS011;28933;52.492;13.434;2024-01-16T15:10:51;12.95;;;3.60;;
43337;SDS011;28933;52.492;13.434;2024-01-16T15:13:37;8.52;;;3.58;;
43337;SDS011;28933;52.492;13.434;2024-01-16T15:16:23;5.70;;;3.28;;
43337;SDS011;28933;52.492;13.434;2024-01-16T15:19:10;7.30;;;3.42;;
43337;SDS011;28933;52.492;13.434;2024-01-16T15:21:56;9.50;;;4.05;;
43337;SDS011;28933;52.492;13.434;2024-01-16T15:24:42;7.07;;;3.60;;
43337;SDS011;28933;52.492;13.434;2024-01-16T15:27:29;7.65;;;4.18;;
43337;SDS011;28933;52.492;13.434;2024-01-16T15:30:14;12.20;;;3.92;;
43337;SDS011;28933;52.492;13.434;2024-01-16T15:33:01;5.70;;;3.28;;
43337;SDS011;28933;52.492;13.434;2024-01-16T15:35:49;10.38;;;4.13;;
43337;SDS011;28933;52.492;13.434;2024-01-16T15:38:35;9.05;;;4.00;;
43337;SDS011;28933;52.492;13.434;2024-01-16T15:41:21;7.35;;;3.95;;
43337;SDS011;28933;52.492;13.434;2024-01-16T15:44:07;7.25;;;3.95;;
43337;SDS011;28933;52.492;13.434;2024-01-16T15:49:46;8.85;;;4.63;;
43337;SDS011;28933;52.492;13.434;2024-01-16T15:52:33;10.07;;;5.18;;
43337;SDS011;28933;52.492;13.434;2024-01-16T15:55:19;10.30;;;5.00;;
43337;SDS011;28933;52.492;13.434;2024-01-16T15:58:05;10.07;;;5.38;;
43337;SDS011;28933;52.492;13.434;2024-01-16T16:00:51;11.00;;;5.10;;
43337;SDS011;28933;52.492;13.434;2024-01-16T16:03:37;10.07;;;4.63;;
43337;SDS011;28933;52.492;13.434;2024-01-16T16:06:23;11.05;;;4.82;;
43337;SDS011;28933;52.492;13.434;2024-01-16T16:09:10;7.95;;;5.22;;
43337;SDS011;28933;52.492;13.434;2024-01-16T16:11:56;9.55;;;5.50;;
43337;SDS011;28933;52.492;13.434;2024-01-16T16:14:42;13.80;;;5.75;;
43337;SDS011;28933;52.492;13.434;2024-01-16T16:17:28;14.00;;;5.47;;
43337;SDS011;28933;52.492;13.434;2024-01-16T16:20:14;10.93;;;6.35;;
43337;SDS011;28933;52.492;13.434;2024-01-16T16:23:00;11.00;;;5.97;;
43337;SDS011;28933;52.492;13.434;2024-01-16T16:25:46;9.88;;;5.82;;
43337;SDS011;28933;52.492;13.434;2024-01-16T16:28:32;10.05;;;5.28;;
43337;SDS011;28933;52.492;13.434;2024-01-16T16:31:18;10.35;;;5.93;;
43337;SDS011;28933;52.492;13.434;2024-01-16T16:34:05;10.88;;;5.78;;
43337;SDS011;28933;52.492;13.434;2024-01-16T16:36:52;9.48;;;5.82;;
43337;SDS011;28933;52.492;13.434;2024-01-16T16:39:38;11.07;;;5.97;;
43337;SDS011;28933;52.492;13.434;2024-01-16T16:42:24;13.15;;;7.00;;
43337;SDS011;28933;52.492;13.434;2024-01-16T16:45:12;16.90;;;6.85;;
43337;SDS011;28933;52.492;13.434;2024-01-16T16:47:58;14.52;;;6.55;;
43337;SDS011;28933;52.492;13.434;2024-01-16T16:50:44;10.52;;;6.30;;
43337;SDS011;28933;52.492;13.434;2024-01-16T16:53:30;14.43;;;7.32;;
43337;SDS011;28933;52.492;13.434;2024-01-16T16:56:16;10.98;;;5.57;;
43337;SDS011;28933;52.492;13.434;2024-01-16T16:59:03;16.42;;;7.75;;
43337;SDS011;28933;52.492;13.434;2024-01-16T17:01:49;10.95;;;6.88;;
43337;SDS011;28933;52.492;13.434;2024-01-16T17:04:36;17.17;;;8.25;;
43337;SDS011;28933;52.492;13.434;2024-01-16T17:07:23;17.42;;;8.52;;
43337;SDS011;28933;52.492;13.434;2024-01-16T17:10:09;14.18;;;7.57;;
43337;SDS011;28933;52.492;13.434;2024-01-16T17:12:55;15.18;;;7.65;;
43337;SDS011;28933;52.492;13.434;2024-01-16T17:15:41;13.40;;;7.85;;
43337;SDS011;28933;52.492;13.434;2024-01-16T17:18:28;15.15;;;7.38;;
43337;SDS011;28933;52.492;13.434;2024-01-16T17:21:18;10.38;;;6.32;;
43337;SDS011;28933;52.492;13.434;2024-01-16T17:24:04;15.38;;;7.28;;
43337;SDS011;28933;52.492;13.434;2024-01-16T17:26:50;19.13;;;7.43;;
43337;SDS011;28933;52.492;13.434;2024-01-16T17:29:36;10.02;;;6.90;;
43337;SDS011;28933;52.492;13.434;2024-01-16T17:32:23;10.63;;;6.45;;
43337;SDS011;28933;52.492;13.434;2024-01-16T17:35:09;10.23;;;6.28;;
43337;SDS011;28933;52.492;13.434;2024-01-16T17:37:59;10.93;;;6.18;;
43337;SDS011;28933;52.492;13.434;2024-01-16T17:40:45;11.65;;;6.65;;
43337;SDS011;28933;52.492;13.434;2024-01-16T17:43:31;11.20;;;6.18;;
43337;SDS011;28933;52.492;13.434;2024-01-16T17:46:17;11.32;;;6.15;;
43337;SDS011;28933;52.492;13.434;2024-01-16T17:49:03;11.07;;;6.03;;
43337;SDS011;28933;52.492;13.434;2024-01-16T17:51:50;10.60;;;5.70;;
43337;SDS011;28933;52.492;13.434;2024-01-16T17:54:39;11.27;;;5.80;;
43337;SDS011;28933;52.492;13.434;2024-01-16T17:57:26;10.18;;;5.72;;
43337;SDS011;28933;52.492;13.434;2024-01-16T18:00:13;8.75;;;6.07;;
43337;SDS011;28933;52.492;13.434;2024-01-16T18:03:02;8.38;;;5.60;;
43337;SDS011;28933;52.492;13.434;2024-01-16T18:05:48;12.60;;;6.50;;
43337;SDS011;28933;52.492;13.434;2024-01-16T18:08:35;11.15;;;6.78;;
43337;SDS011;28933;52.492;13.434;2024-01-16T18:11:22;13.98;;;6.53;;
43337;SDS011;28933;52.492;13.434;2024-01-16T18:14:08;15.95;;;7.78;;
43337;SDS011;28933;52.492;13.434;2024-01-16T18:16:56;13.38;;;7.45;;
43337;SDS011;28933;52.492;13.434;2024-01-16T18:19:42;12.55;;;7.53;;
43337;SDS011;28933;52.492;13.434;2024-01-16T18:22:29;16.88;;;8.13;;
43337;SDS011;28933;52.492;13.434;2024-01-16T18:25:15;17.05;;;7.57;;
43337;SDS011;28933;52.492;13.434;2024-01-16T18:28:01;16.77;;;8.13;;
43337;SDS011;28933;52.492;13.434;2024-01-16T18:30:47;11.80;;;7.55;;
43337;SDS011;28933;52.492;13.434;2024-01-16T18:33:33;15.82;;;7.90;;
43337;SDS011;28933;52.492;13.434;2024-01-16T18:36:19;15.05;;;7.80;;
43337;SDS011;28933;52.492;13.434;2024-01-16T18:39:06;10.32;;;6.75;;
43337;SDS011;28933;52.492;13.434;2024-01-16T18:41:57;12.55;;;7.20;;
43337;SDS011;28933;52.492;13.434;2024-01-16T18:44:43;11.48;;;7.15;;
43337;SDS011;28933;52.492;13.434;2024-01-16T18:47:30;12.20;;;6.43;;
43337;SDS011;28933;52.492;13.434;2024-01-16T18:50:17;12.82;;;6.88;;
43337;SDS011;28933;52.492;13.434;2024-01-16T18:53:03;11.70;;;7.68;;
43337;SDS011;28933;52.492;13.434;2024-01-16T18:55:49;14.38;;;7.95;;
43337;SDS011;28933;52.492;13.434;2024-01-16T18:58:37;17.98;;;8.65;;
43337;SDS011;28933;52.492;13.434;2024-01-16T19:01:23;17.20;;;9.18;;
43337;SDS011;28933;52.492;13.434;2024-01-16T19:04:14;19.75;;;11.10;;
43337;SDS011;28933;52.492;13.434;2024-01-16T19:07:02;16.52;;;8.98;;
43337;SDS011;28933;52.492;13.434;2024-01-16T19:09:57;15.77;;;8.63;;
43337;SDS011;28933;52.492;13.434;2024-01-16T19:12:43;19.88;;;8.55;;
43337;SDS011;28933;52.492;13.434;2024-01-16T19:15:33;15.23;;;7.90;;
43337;SDS011;28933;52.492;13.434;2024-01-16T19:18:19;15.27;;;7.90;;
43337;SDS011;28933;52.492;13.434;2024-01-16T19:21:05;14.70;;;7.93;;
43337;SDS011;28933;52.492;13.434;2024-01-16T19:23:52;11.30;;;7.35;;
43337;SDS011;28933;52.492;13.434;2024-01-16T19:26:38;10.27;;;6.57;;
43337;SDS011;28933;52.492;13.434;2024-01-16T19:29:24;12.52;;;7.13;;
43337;SDS011;28933;52.492;13.434;2024-01-16T19:32:10;12.13;;;6.80;;
43337;SDS011;28933;52.492;13.434;2024-01-16T19:34:56;12.23;;;7.30;;
43337;SDS011;28933;52.492;13.434;2024-01-16T19:37:42;12.32;;;7.95;;
43337;SDS011;28933;52.492;13.434;2024-01-16T19:40:29;11.80;;;7.60;;
43337;SDS011;28933;52.492;13.434;2024-01-16T19:43:15;9.93;;;7.25;;
43337;SDS011;28933;52.492;13.434;2024-01-16T19:46:02;13.13;;;7.78;;
43337;SDS011;28933;52.492;13.434;2024-01-16T19:48:48;10.93;;;6.90;;
43337;SDS011;28933;52.492;13.434;2024-01-16T19:51:40;11.95;;;7.43;;
43337;SDS011;28933;52.492;13.434;2024-01-16T19:54:26;11.38;;;6.80;;
43337;SDS011;28933;52.492;13.434;2024-01-16T19:57:12;12.07;;;8.30;;
43337;SDS011;28933;52.492;13.434;2024-01-16T19:59:58;13.95;;;7.43;;
43337;SDS011;28933;52.492;13.434;2024-01-16T20:02:46;16.33;;;8.40;;
43337;SDS011;28933;52.492;13.434;2024-01-16T20:05:33;14.27;;;7.32;;
43337;SDS011;28933;52.492;13.434;2024-01-16T20:08:27;12.73;;;7.43;;
43337;SDS011;28933;52.492;13.434;2024-01-16T20:11:13;12.82;;;8.50;;
43337;SDS011;28933;52.492;13.434;2024-01-16T20:14:00;14.80;;;8.27;;
43337;SDS011;28933;52.492;13.434;2024-01-16T20:16:46;15.55;;;8.27;;
43337;SDS011;28933;52.492;13.434;2024-01-16T20:19:32;12.85;;;8.13;;
43337;SDS011;28933;52.492;13.434;2024-01-16T20:22:19;8.80;;;7.18;;
43337;SDS011;28933;52.492;13.434;2024-01-16T20:25:05;15.55;;;7.60;;
43337;SDS011;28933;52.492;13.434;2024-01-16T20:27:51;11.55;;;7.07;;
43337;SDS011;28933;52.492;13.434;2024-01-16T20:30:37;11.25;;;6.93;;
43337;SDS011;28933;52.492;13.434;2024-01-16T20:33:26;13.27;;;7.35;;
43337;SDS011;28933;52.492;13.434;2024-01-16T20:36:12;10.20;;;6.25;;
43337;SDS011;28933;52.492;13.434;2024-01-16T20:38:59;9.73;;;6.75;;
43337;SDS011;28933;52.492;13.434;2024-01-16T20:41:45;11.30;;;6.00;;
43337;SDS011;28933;52.492;13.434;2024-01-16T20:44:31;13.02;;;5.85;;
43337;SDS011;28933;52.492;13.434;2024-01-16T20:47:18;8.13;;;5.30;;
43337;SDS011;28933;52.492;13.434;2024-01-16T20:50:03;9.60;;;5.80;;
43337;SDS011;28933;52.492;13.434;2024-01-16T20:52:51;8.73;;;5.90;;
43337;SDS011;28933;52.492;13.434;2024-01-16T20:55:37;9.95;;;6.25;;
43337;SDS011;28933;52.492;13.434;2024-01-16T20:58:23;9.52;;;5.28;;
43337;SDS011;28933;52.492;13.434;2024-01-16T21:01:09;9.52;;;5.28;;
43337;SDS011;28933;52.492;13.434;2024-01-16T21:03:55;9.63;;;6.07;;
43337;SDS011;28933;52.492;13.434;2024-01-16T21:06:41;10.20;;;5.45;;
43337;SDS011;28933;52.492;13.434;2024-01-16T21:09:27;10.50;;;6.63;;
43337;SDS011;28933;52.492;13.434;2024-01-16T21:12:13;10.55;;;6.30;;
43337;SDS011;28933;52.492;13.434;2024-01-16T21:15:07;12.43;;;5.65;;
43337;SDS011;28933;52.492;13.434;2024-01-16T21:17:53;12.48;;;6.90;;
43337;SDS011;28933;52.492;13.434;2024-01-16T21:20:39;8.35;;;5.50;;
43337;SDS011;28933;52.492;13.434;2024-01-16T21:23:25;9.65;;;5.88;;
43337;SDS011;28933;52.492;13.434;2024-01-16T21:26:11;9.82;;;6.10;;
43337;SDS011;28933;52.492;13.434;2024-01-16T21:28:57;9.13;;;5.65;;
43337;SDS011;28933;52.492;13.434;2024-01-16T21:34:29;11.23;;;6.43;;
43337;SDS011;28933;52.492;13.434;2024-01-16T21:37:15;11.77;;;5.45;;
43337;SDS011;28933;52.492;13.434;2024-01-16T21:40:01;11.48;;;6.22;;
43337;SDS011;28933;52.492;13.434;2024-01-16T21:42:48;9.65;;;6.03;;
43337;SDS011;28933;52.492;13.434;2024-01-16T21:45:34;13.55;;;5.95;;
43337;SDS011;28933;52.492;13.434;2024-01-16T21:48:20;11.80;;;5.90;;
43337;SDS011;28933;52.492;13.434;2024-01-16T21:51:06;8.82;;;5.90;;
43337;SDS011;28933;52.492;13.434;2024-01-16T21:53:53;11.35;;;6.10;;
43337;SDS011;28933;52.492;13.434;2024-01-16T21:56:39;11.15;;;6.05;;
43337;SDS011;28933;52.492;13.434;2024-01-16T21:59:25;11.43;;;5.47;;
43337;SDS011;28933;52.492;13.434;2024-01-16T22:02:11;22.20;;;6.07;;
43337;SDS011;28933;52.492;13.434;2024-01-16T22:04:58;10.70;;;4.88;;
43337;SDS011;28933;52.492;13.434;2024-01-16T22:07:44;12.63;;;5.97;;
43337;SDS011;28933;52.492;13.434;2024-01-16T22:10:30;9.20;;;5.50;;
43337;SDS011;28933;52.492;13.434;2024-01-16T22:13:16;7.97;;;4.88;;
43337;SDS011;28933;52.492;13.434;2024-01-16T22:16:03;13.40;;;5.50;;
43337;SDS011;28933;52.492;13.434;2024-01-16T22:18:50;11.43;;;5.35;;
43337;SDS011;28933;52.492;13.434;2024-01-16T22:21:37;9.68;;;5.70;;
43337;SDS011;28933;52.492;13.434;2024-01-16T22:24:23;8.50;;;5.53;;
43337;SDS011;28933;52.492;13.434;2024-01-16T22:27:08;10.65;;;6.72;;
43337;SDS011;28933;52.492;13.434;2024-01-16T22:29:54;9.00;;;5.25;;
43337;SDS011;28933;52.492;13.434;2024-01-16T22:32:40;6.85;;;4.63;;
43337;SDS011;28933;52.492;13.434;2024-01-16T22:35:26;9.25;;;5.53;;
43337;SDS011;28933;52.492;13.434;2024-01-16T22:38:12;7.60;;;5.55;;
43337;SDS011;28933;52.492;13.434;2024-01-16T22:40:58;9.00;;;5.13;;
43337;SDS011;28933;52.492;13.434;2024-01-16T22:43:44;12.38;;;5.47;;
43337;SDS011;28933;52.492;13.434;2024-01-16T22:46:30;11.43;;;6.30;;
43337;SDS011;28933;52.492;13.434;2024-01-16T22:49:16;11.60;;;5.75;;
43337;SDS011;28933;52.492;13.434;2024-01-16T22:52:02;8.70;;;5.55;;
43337;SDS011;28933;52.492;13.434;2024-01-16T22:54:48;10.27;;;5.93;;
43337;SDS011;28933;52.492;13.434;2024-01-16T22:57:34;10.60;;;5.88;;
43337;SDS011;28933;52.492;13.434;2024-01-16T23:00:21;11.75;;;6.43;;
43337;SDS011;28933;52.492;13.434;2024-01-16T23:03:07;13.93;;;6.93;;
43337;SDS011;28933;52.492;13.434;2024-01-16T23:05:54;8.65;;;5.45;;
43337;SDS011;28933;52.492;13.434;2024-01-16T23:08:40;13.57;;;7.43;;
43337;SDS011;28933;52.492;13.434;2024-01-16T23:11:26;16.13;;;7.72;;
43337;SDS011;28933;52.492;13.434;2024-01-16T23:14:12;14.88;;;7.72;;
43337;SDS011;28933;52.492;13.434;2024-01-16T23:16:58;11.52;;;7.53;;
43337;SDS011;28933;52.492;13.434;2024-01-16T23:19:44;14.82;;;8.57;;
43337;SDS011;28933;52.492;13.434;2024-01-16T23:22:30;10.68;;;6.55;;
43337;SDS011;28933;52.492;13.434;2024-01-16T23:25:16;13.32;;;7.40;;
43337;SDS011;28933;52.492;13.434;2024-01-16T23:28:03;17.08;;;8.18;;
43337;SDS011;28933;52.492;13.434;2024-01-16T23:30:49;14.20;;;7.22;;
43337;SDS011;28933;52.492;13.434;2024-01-16T23:33:35;11.40;;;6.13;;
43337;SDS011;28933;52.492;13.434;2024-01-16T23:36:21;14.75;;;6.88;;
43337;SDS011;28933;52.492;13.434;2024-01-16T23:39:06;12.40;;;6.38;;
43337;SDS011;28933;52.492;13.434;2024-01-16T23:41:56;11.25;;;7.03;;
43337;SDS011;28933;52.492;13.434;2024-01-16T23:44:42;13.52;;;7.18;;
43337;SDS011;28933;52.492;13.434;2024-01-16T23:47:28;13.43;;;6.93;;
43337;SDS011;28933;52.492;13.434;2024-01-16T23:50:14;10.95;;;6.70;;
43337;SDS011;28933;52.492;13.434;2024-01-16T23:53:02;12.05;;;7.63;;
43337;SDS011;28933;52.492;13.434;2024-01-16T23:55:48;14.52;;;6.90;;
43337;SDS011;28933;52.492;13.434;2024-01-16T23:58:36;10.68;;;6.57;;
